Terminal Aerodrome Forecast
Issued by NWS

Home | Current Version | Previous Version | Text Only | Print | Product List | Glossary On
Versions: 1 2 3 4 5 6 7 8 9 10 11 12 13 14 15 16 17 18 19 20
000
FTUS43 KDLH 230800 AAA
TAFHYR
TAF AMD
KHYR 230808Z 2308/2406 16005KT 2SM BR OVC003
     FM231100 17005KT 1/2SM -DZ FG VV002
     FM231700 19005KT 2SM -DZ BR OVC006
     FM240000 31007KT 4SM BR BKN017
     FM240400 34010KT 3SM -SN OVC008=

USA.gov is the U.S. government's official web portal to all federal, state and local government web resources and services.